sensor_id;sensor_type;location;lat;lon;timestamp;temperature;humidity
20560;DHT22;10438;51.454;6.718;2023-05-02T00:01:57;11.10;99.90
20560;DHT22;10438;51.454;6.718;2023-05-02T00:04:23;11.10;99.90
20560;DHT22;10438;51.454;6.718;2023-05-02T00:06:51;11.20;99.90
20560;DHT22;10438;51.454;6.718;2023-05-02T00:09:17;11.20;99.90
20560;DHT22;10438;51.454;6.718;2023-05-02T00:11:42;11.30;99.90
20560;DHT22;10438;51.454;6.718;2023-05-02T00:14:08;11.30;99.90
20560;DHT22;10438;51.454;6.718;2023-05-02T00:16:33;11.30;99.90
20560;DHT22;10438;51.454;6.718;2023-05-02T00:18:59;11.20;99.90
20560;DHT22;10438;51.454;6.718;2023-05-02T00:21:24;11.20;99.90
20560;DHT22;10438;51.454;6.718;2023-05-02T00:23:50;11.10;99.90
20560;DHT22;10438;51.454;6.718;2023-05-02T00:26:16;11.10;99.90
20560;DHT22;10438;51.454;6.718;2023-05-02T00:28:41;11.00;99.90
20560;DHT22;10438;51.454;6.718;2023-05-02T00:31:07;11.00;99.90
20560;DHT22;10438;51.454;6.718;2023-05-02T00:33:33;10.90;99.90
20560;DHT22;10438;51.454;6.718;2023-05-02T00:35:59;10.90;99.90
20560;DHT22;10438;51.454;6.718;2023-05-02T00:38:24;10.80;99.90
20560;DHT22;10438;51.454;6.718;2023-05-02T00:40:50;10.70;99.90
20560;DHT22;10438;51.454;6.718;2023-05-02T00:43:16;10.70;99.90
20560;DHT22;10438;51.454;6.718;2023-05-02T00:45:43;10.70;99.90
20560;DHT22;10438;51.454;6.718;2023-05-02T00:48:09;10.60;99.90
20560;DHT22;10438;51.454;6.718;2023-05-02T00:50:37;10.60;99.90
20560;DHT22;10438;51.454;6.718;2023-05-02T00:53:05;10.50;99.90
20560;DHT22;10438;51.454;6.718;2023-05-02T00:55:31;10.50;99.90
20560;DHT22;10438;51.454;6.718;2023-05-02T00:57:59;10.60;99.90
20560;DHT22;10438;51.454;6.718;2023-05-02T01:12:15;10.80;99.90
20560;DHT22;10438;51.454;6.718;2023-05-02T01:14:47;10.80;99.90
20560;DHT22;10438;51.454;6.718;2023-05-02T01:17:16;10.90;99.90
20560;DHT22;10438;51.454;6.718;2023-05-02T01:19:48;10.90;99.90
20560;DHT22;10438;51.454;6.718;2023-05-02T01:22:15;10.90;99.90
20560;DHT22;10438;51.454;6.718;2023-05-02T01:25:07;10.90;99.90
20560;DHT22;10438;51.454;6.718;2023-05-02T01:30:24;11.00;99.90
20560;DHT22;10438;51.454;6.718;2023-05-02T01:32:53;11.00;99.90
20560;DHT22;10438;51.454;6.718;2023-05-02T01:35:20;11.00;99.90
20560;DHT22;10438;51.454;6.718;2023-05-02T01:37:47;11.00;99.90
20560;DHT22;10438;51.454;6.718;2023-05-02T01:40:17;11.10;99.90
20560;DHT22;10438;51.454;6.718;2023-05-02T01:42:44;11.10;99.90
20560;DHT22;10438;51.454;6.718;2023-05-02T01:45:11;11.10;99.90
20560;DHT22;10438;51.454;6.718;2023-05-02T01:47:38;11.10;99.90
20560;DHT22;10438;51.454;6.718;2023-05-02T01:50:07;11.20;99.90
20560;DHT22;10438;51.454;6.718;2023-05-02T01:52:36;11.20;99.90
20560;DHT22;10438;51.454;6.718;2023-05-02T01:55:03;11.10;99.90
20560;DHT22;10438;51.454;6.718;2023-05-02T01:57:30;11.20;99.90
20560;DHT22;10438;51.454;6.718;2023-05-02T01:59:57;11.20;99.90
20560;DHT22;10438;51.454;6.718;2023-05-02T02:02:26;11.20;99.90
20560;DHT22;10438;51.454;6.718;2023-05-02T02:04:53;11.20;99.90
20560;DHT22;10438;51.454;6.718;2023-05-02T02:07:20;11.20;99.90
20560;DHT22;10438;51.454;6.718;2023-05-02T02:09:46;11.20;99.90
20560;DHT22;10438;51.454;6.718;2023-05-02T02:12:16;11.20;99.90
20560;DHT22;10438;51.454;6.718;2023-05-02T02:14:50;11.20;99.90
20560;DHT22;10438;51.454;6.718;2023-05-02T02:17:36;11.30;99.90
20560;DHT22;10438;51.454;6.718;2023-05-02T02:20:08;11.20;99.90
20560;DHT22;10438;51.454;6.718;2023-05-02T02:22:38;11.30;99.90
20560;DHT22;10438;51.454;6.718;2023-05-02T02:25:06;11.30;99.90
20560;DHT22;10438;51.454;6.718;2023-05-02T02:27:32;11.30;99.90
20560;DHT22;10438;51.454;6.718;2023-05-02T02:29:57;11.20;99.90
20560;DHT22;10438;51.454;6.718;2023-05-02T02:32:23;11.20;99.90
20560;DHT22;10438;51.454;6.718;2023-05-02T02:34:49;11.30;99.90
20560;DHT22;10438;51.454;6.718;2023-05-02T02:37:19;11.30;99.90
20560;DHT22;10438;51.454;6.718;2023-05-02T02:42:43;11.20;99.90
20560;DHT22;10438;51.454;6.718;2023-05-02T02:53:18;11.30;99.90
20560;DHT22;10438;51.454;6.718;2023-05-02T02:55:56;11.30;99.90
20560;DHT22;10438;51.454;6.718;2023-05-02T02:58:47;11.30;99.90
20560;DHT22;10438;51.454;6.718;2023-05-02T03:01:19;11.30;99.90
20560;DHT22;10438;51.454;6.718;2023-05-02T03:03:46;11.30;99.90
20560;DHT22;10438;51.454;6.718;2023-05-02T03:06:12;11.30;99.90
20560;DHT22;10438;51.454;6.718;2023-05-02T03:08:39;11.30;99.90
20560;DHT22;10438;51.454;6.718;2023-05-02T03:11:05;11.30;99.90
20560;DHT22;10438;51.454;6.718;2023-05-02T03:13:31;11.30;99.90
20560;DHT22;10438;51.454;6.718;2023-05-02T03:18:54;11.30;99.90
20560;DHT22;10438;51.454;6.718;2023-05-02T03:21:20;11.30;99.90
20560;DHT22;10438;51.454;6.718;2023-05-02T03:23:45;11.30;99.90
20560;DHT22;10438;51.454;6.718;2023-05-02T03:26:11;11.30;99.90
20560;DHT22;10438;51.454;6.718;2023-05-02T03:28:36;11.30;99.90
20560;DHT22;10438;51.454;6.718;2023-05-02T03:31:02;11.30;99.90
20560;DHT22;10438;51.454;6.718;2023-05-02T03:33:27;11.30;99.90
20560;DHT22;10438;51.454;6.718;2023-05-02T03:35:53;11.30;99.90
20560;DHT22;10438;51.454;6.718;2023-05-02T03:38:18;11.30;99.90
20560;DHT22;10438;51.454;6.718;2023-05-02T03:40:44;11.40;99.90
20560;DHT22;10438;51.454;6.718;2023-05-02T03:43:09;11.40;99.90
20560;DHT22;10438;51.454;6.718;2023-05-02T03:45:35;11.30;99.90
20560;DHT22;10438;51.454;6.718;2023-05-02T03:48:01;11.30;99.90
20560;DHT22;10438;51.454;6.718;2023-05-02T03:50:27;11.30;99.90
20560;DHT22;10438;51.454;6.718;2023-05-02T03:52:52;11.30;99.90
20560;DHT22;10438;51.454;6.718;2023-05-02T03:55:18;11.30;99.90
20560;DHT22;10438;51.454;6.718;2023-05-02T03:57:44;11.30;99.90
20560;DHT22;10438;51.454;6.718;2023-05-02T04:00:10;11.30;99.90
20560;DHT22;10438;51.454;6.718;2023-05-02T04:02:36;11.30;99.90
20560;DHT22;10438;51.454;6.718;2023-05-02T04:05:01;11.30;99.90
20560;DHT22;10438;51.454;6.718;2023-05-02T04:07:27;11.30;99.90
20560;DHT22;10438;51.454;6.718;2023-05-02T04:09:52;11.30;99.90
20560;DHT22;10438;51.454;6.718;2023-05-02T04:12:18;11.30;99.90
20560;DHT22;10438;51.454;6.718;2023-05-02T04:14:44;11.30;99.90
20560;DHT22;10438;51.454;6.718;2023-05-02T04:17:09;11.30;99.90
20560;DHT22;10438;51.454;6.718;2023-05-02T04:19:35;11.30;99.90
20560;DHT22;10438;51.454;6.718;2023-05-02T04:22:01;11.30;99.90
20560;DHT22;10438;51.454;6.718;2023-05-02T04:24:27;11.20;99.90
20560;DHT22;10438;51.454;6.718;2023-05-02T04:26:53;11.20;99.90
20560;DHT22;10438;51.454;6.718;2023-05-02T04:29:19;11.20;99.90
20560;DHT22;10438;51.454;6.718;2023-05-02T04:31:45;11.20;99.90
20560;DHT22;10438;51.454;6.718;2023-05-02T04:34:10;11.10;99.90
20560;DHT22;10438;51.454;6.718;2023-05-02T04:36:36;11.10;99.90
20560;DHT22;10438;51.454;6.718;2023-05-02T04:39:02;11.00;99.90
20560;DHT22;10438;51.454;6.718;2023-05-02T04:41:29;11.00;99.90
20560;DHT22;10438;51.454;6.718;2023-05-02T04:43:54;10.90;99.90
20560;DHT22;10438;51.454;6.718;2023-05-02T04:46:20;10.90;99.90
20560;DHT22;10438;51.454;6.718;2023-05-02T04:48:45;10.90;99.90
20560;DHT22;10438;51.454;6.718;2023-05-02T04:51:11;10.80;99.90
20560;DHT22;10438;51.454;6.718;2023-05-02T04:53:37;10.80;99.90
20560;DHT22;10438;51.454;6.718;2023-05-02T04:56:03;10.80;99.90
20560;DHT22;10438;51.454;6.718;2023-05-02T04:58:28;10.70;99.90
20560;DHT22;10438;51.454;6.718;2023-05-02T05:00:54;10.70;99.90
20560;DHT22;10438;51.454;6.718;2023-05-02T05:03:20;10.70;99.90
20560;DHT22;10438;51.454;6.718;2023-05-02T05:05:46;10.70;99.90
20560;DHT22;10438;51.454;6.718;2023-05-02T05:08:11;10.60;99.90
20560;DHT22;10438;51.454;6.718;2023-05-02T05:10:37;10.60;99.90
20560;DHT22;10438;51.454;6.718;2023-05-02T05:13:04;10.60;99.90
20560;DHT22;10438;51.454;6.718;2023-05-02T05:15:30;10.50;99.90
20560;DHT22;10438;51.454;6.718;2023-05-02T05:17:56;10.50;99.90
20560;DHT22;10438;51.454;6.718;2023-05-02T05:20:21;10.50;99.90
20560;DHT22;10438;51.454;6.718;2023-05-02T05:22:47;10.50;99.90
20560;DHT22;10438;51.454;6.718;2023-05-02T05:25:12;10.50;99.90
20560;DHT22;10438;51.454;6.718;2023-05-02T05:27:39;10.50;99.90
20560;DHT22;10438;51.454;6.718;2023-05-02T05:30:05;10.50;99.90
20560;DHT22;10438;51.454;6.718;2023-05-02T05:32:32;10.50;99.90
20560;DHT22;10438;51.454;6.718;2023-05-02T05:34:58;10.50;99.90
20560;DHT22;10438;51.454;6.718;2023-05-02T05:37:23;10.50;99.90
20560;DHT22;10438;51.454;6.718;2023-05-02T05:39:49;10.50;99.90
20560;DHT22;10438;51.454;6.718;2023-05-02T05:42:14;10.50;99.90
20560;DHT22;10438;51.454;6.718;2023-05-02T05:44:40;10.50;99.90
20560;DHT22;10438;51.454;6.718;2023-05-02T05:47:05;10.50;99.90
20560;DHT22;10438;51.454;6.718;2023-05-02T05:49:31;10.50;99.90
20560;DHT22;10438;51.454;6.718;2023-05-02T05:51:57;10.50;99.90
20560;DHT22;10438;51.454;6.718;2023-05-02T05:54:22;10.50;99.90
20560;DHT22;10438;51.454;6.718;2023-05-02T05:56:48;10.50;99.90
20560;DHT22;10438;51.454;6.718;2023-05-02T05:59:14;10.50;99.90
20560;DHT22;10438;51.454;6.718;2023-05-02T06:01:40;10.60;99.90
20560;DHT22;10438;51.454;6.718;2023-05-02T06:04:06;10.60;99.90
20560;DHT22;10438;51.454;6.718;2023-05-02T06:06:33;10.60;99.90
20560;DHT22;10438;51.454;6.718;2023-05-02T06:08:59;10.70;99.90
20560;DHT22;10438;51.454;6.718;2023-05-02T06:11:25;10.70;99.90
20560;DHT22;10438;51.454;6.718;2023-05-02T06:13:53;10.70;99.90
20560;DHT22;10438;51.454;6.718;2023-05-02T06:16:19;10.80;99.90
20560;DHT22;10438;51.454;6.718;2023-05-02T06:18:45;10.80;99.90
20560;DHT22;10438;51.454;6.718;2023-05-02T06:21:11;10.80;99.90
20560;DHT22;10438;51.454;6.718;2023-05-02T06:23:37;10.90;99.90
20560;DHT22;10438;51.454;6.718;2023-05-02T06:26:04;10.90;99.90
20560;DHT22;10438;51.454;6.718;2023-05-02T06:28:30;10.90;99.90
20560;DHT22;10438;51.454;6.718;2023-05-02T06:33:22;11.00;99.90
20560;DHT22;10438;51.454;6.718;2023-05-02T06:35:51;11.10;99.90
20560;DHT22;10438;51.454;6.718;2023-05-02T06:38:20;11.10;99.90
20560;DHT22;10438;51.454;6.718;2023-05-02T06:40:46;11.20;99.90
20560;DHT22;10438;51.454;6.718;2023-05-02T06:43:12;11.20;99.90
20560;DHT22;10438;51.454;6.718;2023-05-02T06:45:38;11.30;99.90
20560;DHT22;10438;51.454;6.718;2023-05-02T06:48:04;11.30;99.90
20560;DHT22;10438;51.454;6.718;2023-05-02T06:50:30;11.30;99.90
20560;DHT22;10438;51.454;6.718;2023-05-02T06:52:55;11.20;99.90
20560;DHT22;10438;51.454;6.718;2023-05-02T06:55:21;11.10;99.90
20560;DHT22;10438;51.454;6.718;2023-05-02T06:57:48;11.00;99.90
20560;DHT22;10438;51.454;6.718;2023-05-02T07:00:18;10.90;99.90
20560;DHT22;10438;51.454;6.718;2023-05-02T07:02:44;10.80;99.90
20560;DHT22;10438;51.454;6.718;2023-05-02T07:05:11;10.70;99.90
20560;DHT22;10438;51.454;6.718;2023-05-02T07:07:36;10.70;99.90
20560;DHT22;10438;51.454;6.718;2023-05-02T07:10:03;10.70;99.90
20560;DHT22;10438;51.454;6.718;2023-05-02T07:12:28;10.70;99.90
20560;DHT22;10438;51.454;6.718;2023-05-02T07:14:54;10.80;99.90
20560;DHT22;10438;51.454;6.718;2023-05-02T07:17:19;10.70;99.90
20560;DHT22;10438;51.454;6.718;2023-05-02T07:19:45;10.70;99.90
20560;DHT22;10438;51.454;6.718;2023-05-02T07:22:11;10.70;99.90
20560;DHT22;10438;51.454;6.718;2023-05-02T07:24:39;10.80;99.90
20560;DHT22;10438;51.454;6.718;2023-05-02T07:27:07;10.80;99.90
20560;DHT22;10438;51.454;6.718;2023-05-02T07:29:32;10.90;99.90
20560;DHT22;10438;51.454;6.718;2023-05-02T07:31:58;10.90;99.90
20560;DHT22;10438;51.454;6.718;2023-05-02T07:34:23;11.00;99.90
20560;DHT22;10438;51.454;6.718;2023-05-02T07:36:49;11.10;99.90
20560;DHT22;10438;51.454;6.718;2023-05-02T07:39:14;11.10;99.90
20560;DHT22;10438;51.454;6.718;2023-05-02T07:41:40;11.20;99.90
20560;DHT22;10438;51.454;6.718;2023-05-02T07:44:05;11.20;99.90
20560;DHT22;10438;51.454;6.718;2023-05-02T07:46:31;11.20;99.90
20560;DHT22;10438;51.454;6.718;2023-05-02T07:48:56;11.30;99.90
20560;DHT22;10438;51.454;6.718;2023-05-02T07:51:22;11.30;99.90
20560;DHT22;10438;51.454;6.718;2023-05-02T07:53:51;11.20;99.90
20560;DHT22;10438;51.454;6.718;2023-05-02T07:56:25;11.20;99.90
20560;DHT22;10438;51.454;6.718;2023-05-02T07:58:51;11.20;99.90
20560;DHT22;10438;51.454;6.718;2023-05-02T08:01:17;11.40;99.90
20560;DHT22;10438;51.454;6.718;2023-05-02T08:03:43;11.40;99.90
20560;DHT22;10438;51.454;6.718;2023-05-02T08:06:08;11.50;99.90
20560;DHT22;10438;51.454;6.718;2023-05-02T08:08:35;11.50;99.90
20560;DHT22;10438;51.454;6.718;2023-05-02T08:11:00;11.50;99.90
20560;DHT22;10438;51.454;6.718;2023-05-02T08:13:26;11.70;99.90
20560;DHT22;10438;51.454;6.718;2023-05-02T08:15:53;11.70;99.90
20560;DHT22;10438;51.454;6.718;2023-05-02T08:18:25;11.60;99.90
20560;DHT22;10438;51.454;6.718;2023-05-02T08:20:51;11.70;99.90
20560;DHT22;10438;51.454;6.718;2023-05-02T08:23:17;11.70;99.90
20560;DHT22;10438;51.454;6.718;2023-05-02T08:25:43;11.70;99.90
20560;DHT22;10438;51.454;6.718;2023-05-02T08:28:08;11.50;99.90
20560;DHT22;10438;51.454;6.718;2023-05-02T08:30:35;11.60;99.90
20560;DHT22;10438;51.454;6.718;2023-05-02T08:33:00;11.50;99.90
20560;DHT22;10438;51.454;6.718;2023-05-02T08:35:28;11.50;99.90
20560;DHT22;10438;51.454;6.718;2023-05-02T08:37:54;11.40;99.90
20560;DHT22;10438;51.454;6.718;2023-05-02T08:40:21;11.30;99.90
20560;DHT22;10438;51.454;6.718;2023-05-02T08:42:47;11.40;99.90
20560;DHT22;10438;51.454;6.718;2023-05-02T08:45:13;11.30;99.90
20560;DHT22;10438;51.454;6.718;2023-05-02T08:47:43;11.40;99.90
20560;DHT22;10438;51.454;6.718;2023-05-02T08:50:10;11.50;99.90
20560;DHT22;10438;51.454;6.718;2023-05-02T08:52:36;11.60;99.90
20560;DHT22;10438;51.454;6.718;2023-05-02T08:55:03;11.40;99.90
20560;DHT22;10438;51.454;6.718;2023-05-02T08:57:30;11.50;99.90
20560;DHT22;10438;51.454;6.718;2023-05-02T08:59:56;11.50;99.90
20560;DHT22;10438;51.454;6.718;2023-05-02T09:05:26;12.10;99.90
20560;DHT22;10438;51.454;6.718;2023-05-02T09:07:52;12.30;99.90
20560;DHT22;10438;51.454;6.718;2023-05-02T09:10:17;12.60;99.90
20560;DHT22;10438;51.454;6.718;2023-05-02T09:12:43;12.90;99.90
20560;DHT22;10438;51.454;6.718;2023-05-02T09:17:43;13.30;99.90
20560;DHT22;10438;51.454;6.718;2023-05-02T09:20:10;13.60;99.90
20560;DHT22;10438;51.454;6.718;2023-05-02T09:22:36;13.60;99.90
20560;DHT22;10438;51.454;6.718;2023-05-02T09:25:03;13.40;99.90
20560;DHT22;10438;51.454;6.718;2023-05-02T09:27:28;13.50;99.90
20560;DHT22;10438;51.454;6.718;2023-05-02T09:30:21;13.60;99.90
20560;DHT22;10438;51.454;6.718;2023-05-02T09:32:47;13.50;99.90
20560;DHT22;10438;51.454;6.718;2023-05-02T09:35:17;13.60;99.90
20560;DHT22;10438;51.454;6.718;2023-05-02T09:37:57;13.30;99.90
20560;DHT22;10438;51.454;6.718;2023-05-02T09:40:23;13.20;99.90
20560;DHT22;10438;51.454;6.718;2023-05-02T09:42:50;12.90;99.90
20560;DHT22;10438;51.454;6.718;2023-05-02T09:45:23;13.30;99.90
20560;DHT22;10438;51.454;6.718;2023-05-02T09:47:50;13.50;99.90
20560;DHT22;10438;51.454;6.718;2023-05-02T09:50:34;13.60;99.90
20560;DHT22;10438;51.454;6.718;2023-05-02T09:53:04;14.00;99.90
20560;DHT22;10438;51.454;6.718;2023-05-02T09:55:30;13.70;99.90
20560;DHT22;10438;51.454;6.718;2023-05-02T09:57:56;13.80;99.90
20560;DHT22;10438;51.454;6.718;2023-05-02T10:00:22;13.70;99.90
20560;DHT22;10438;51.454;6.718;2023-05-02T10:03:05;13.40;98.50
20560;DHT22;10438;51.454;6.718;2023-05-02T10:05:30;13.30;99.90
20560;DHT22;10438;51.454;6.718;2023-05-02T10:07:57;13.40;99.90
20560;DHT22;10438;51.454;6.718;2023-05-02T10:10:22;13.30;99.90
20560;DHT22;10438;51.454;6.718;2023-05-02T10:12:49;13.30;99.90
20560;DHT22;10438;51.454;6.718;2023-05-02T10:15:20;13.30;99.90
20560;DHT22;10438;51.454;6.718;2023-05-02T10:17:51;13.40;99.90
20560;DHT22;10438;51.454;6.718;2023-05-02T10:20:22;13.40;99.90
20560;DHT22;10438;51.454;6.718;2023-05-02T10:22:50;13.50;99.90
20560;DHT22;10438;51.454;6.718;2023-05-02T10:25:18;13.50;99.90
20560;DHT22;10438;51.454;6.718;2023-05-02T10:27:44;13.40;99.90
20560;DHT22;10438;51.454;6.718;2023-05-02T10:30:12;13.30;99.90
20560;DHT22;10438;51.454;6.718;2023-05-02T10:32:37;13.40;99.90
20560;DHT22;10438;51.454;6.718;2023-05-02T10:35:05;13.40;99.90
20560;DHT22;10438;51.454;6.718;2023-05-02T10:37:32;13.40;99.90
20560;DHT22;10438;51.454;6.718;2023-05-02T10:39:59;13.40;99.90
20560;DHT22;10438;51.454;6.718;2023-05-02T10:42:25;13.30;99.90
20560;DHT22;10438;51.454;6.718;2023-05-02T10:44:51;13.30;96.70
20560;DHT22;10438;51.454;6.718;2023-05-02T10:47:24;13.30;99.90
20560;DHT22;10438;51.454;6.718;2023-05-02T10:49:56;13.40;99.10
20560;DHT22;10438;51.454;6.718;2023-05-02T10:52:37;13.40;94.60
20560;DHT22;10438;51.454;6.718;2023-05-02T10:55:15;13.50;92.70
20560;DHT22;10438;51.454;6.718;2023-05-02T11:00:28;13.70;91.30
20560;DHT22;10438;51.454;6.718;2023-05-02T11:02:54;13.80;90.60
20560;DHT22;10438;51.454;6.718;2023-05-02T11:05:21;13.90;90.30
20560;DHT22;10438;51.454;6.718;2023-05-02T11:07:47;14.20;89.00
20560;DHT22;10438;51.454;6.718;2023-05-02T11:12:49;14.60;75.40
20560;DHT22;10438;51.454;6.718;2023-05-02T11:20:40;14.70;50.30
20560;DHT22;10438;51.454;6.718;2023-05-02T11:25:54;14.60;42.60
20560;DHT22;10438;51.454;6.718;2023-05-02T11:31:01;14.10;23.80
20560;DHT22;10438;51.454;6.718;2023-05-02T11:33:29;14.10;33.30
20560;DHT22;10438;51.454;6.718;2023-05-02T11:35:55;14.30;27.70
20560;DHT22;10438;51.454;6.718;2023-05-02T11:38:25;14.20;20.80
20560;DHT22;10438;51.454;6.718;2023-05-02T11:40:54;14.60;21.60
20560;DHT22;10438;51.454;6.718;2023-05-02T11:43:21;14.90;11.90
20560;DHT22;10438;51.454;6.718;2023-05-02T11:45:47;15.20;9.50
20560;DHT22;10438;51.454;6.718;2023-05-02T11:48:16;15.30;3.90
20560;DHT22;10438;51.454;6.718;2023-05-02T11:50:55;15.70;1.00
20560;DHT22;10438;51.454;6.718;2023-05-02T11:53:25;16.40;1.00
20560;DHT22;10438;51.454;6.718;2023-05-02T11:55:56;17.00;1.00
20560;DHT22;10438;51.454;6.718;2023-05-02T11:58:23;17.10;1.00
20560;DHT22;10438;51.454;6.718;2023-05-02T12:00:51;17.60;1.00
20560;DHT22;10438;51.454;6.718;2023-05-02T12:03:32;17.80;1.00
20560;DHT22;10438;51.454;6.718;2023-05-02T12:06:11;17.50;1.00
20560;DHT22;10438;51.454;6.718;2023-05-02T12:08:39;17.10;1.00
20560;DHT22;10438;51.454;6.718;2023-05-02T12:11:04;16.60;1.00
20560;DHT22;10438;51.454;6.718;2023-05-02T12:13:31;16.40;1.00
20560;DHT22;10438;51.454;6.718;2023-05-02T12:15:57;16.50;1.00
20560;DHT22;10438;51.454;6.718;2023-05-02T12:18:23;16.40;1.00
20560;DHT22;10438;51.454;6.718;2023-05-02T12:20:50;16.40;1.00
20560;DHT22;10438;51.454;6.718;2023-05-02T12:23:18;16.90;1.00
20560;DHT22;10438;51.454;6.718;2023-05-02T12:25:44;16.80;1.00
20560;DHT22;10438;51.454;6.718;2023-05-02T12:28:10;16.80;1.00
20560;DHT22;10438;51.454;6.718;2023-05-02T12:30:37;16.80;1.00
20560;DHT22;10438;51.454;6.718;2023-05-02T12:33:04;16.40;1.00
20560;DHT22;10438;51.454;6.718;2023-05-02T12:35:31;16.40;1.00
20560;DHT22;10438;51.454;6.718;2023-05-02T12:40:33;16.50;1.00
20560;DHT22;10438;51.454;6.718;2023-05-02T12:43:00;16.00;1.00
20560;DHT22;10438;51.454;6.718;2023-05-02T12:45:28;15.90;1.00
20560;DHT22;10438;51.454;6.718;2023-05-02T12:47:58;15.80;1.00
20560;DHT22;10438;51.454;6.718;2023-05-02T12:50:37;16.50;1.00
20560;DHT22;10438;51.454;6.718;2023-05-02T12:53:03;16.90;1.00
20560;DHT22;10438;51.454;6.718;2023-05-02T12:55:29;16.80;1.00
20560;DHT22;10438;51.454;6.718;2023-05-02T12:58:10;16.60;1.00
20560;DHT22;10438;51.454;6.718;2023-05-02T13:00:40;16.90;1.00
20560;DHT22;10438;51.454;6.718;2023-05-02T13:03:08;17.50;1.00
20560;DHT22;10438;51.454;6.718;2023-05-02T13:05:34;17.60;1.00
20560;DHT22;10438;51.454;6.718;2023-05-02T13:08:00;18.00;1.00
20560;DHT22;10438;51.454;6.718;2023-05-02T13:10:26;18.50;1.00
20560;DHT22;10438;51.454;6.718;2023-05-02T13:12:52;18.50;1.00
20560;DHT22;10438;51.454;6.718;2023-05-02T13:15:18;18.20;1.00
20560;DHT22;10438;51.454;6.718;2023-05-02T13:17:44;18.60;1.00
20560;DHT22;10438;51.454;6.718;2023-05-02T13:20:10;18.60;1.00
20560;DHT22;10438;51.454;6.718;2023-05-02T13:22:36;18.90;1.00
20560;DHT22;10438;51.454;6.718;2023-05-02T13:25:03;19.50;1.00
20560;DHT22;10438;51.454;6.718;2023-05-02T13:27:29;19.40;1.00
20560;DHT22;10438;51.454;6.718;2023-05-02T13:29:54;18.90;1.00
20560;DHT22;10438;51.454;6.718;2023-05-02T13:32:20;19.00;1.00
20560;DHT22;10438;51.454;6.718;2023-05-02T13:34:46;19.30;1.00
20560;DHT22;10438;51.454;6.718;2023-05-02T13:37:12;19.70;1.00
20560;DHT22;10438;51.454;6.718;2023-05-02T13:39:37;19.90;1.00
20560;DHT22;10438;51.454;6.718;2023-05-02T13:42:03;20.00;1.00
20560;DHT22;10438;51.454;6.718;2023-05-02T13:44:29;20.10;1.00
20560;DHT22;10438;51.454;6.718;2023-05-02T13:46:55;20.20;1.00
20560;DHT22;10438;51.454;6.718;2023-05-02T13:49:21;19.90;1.00
20560;DHT22;10438;51.454;6.718;2023-05-02T13:51:47;19.70;1.00
20560;DHT22;10438;51.454;6.718;2023-05-02T13:54:13;19.50;1.00
20560;DHT22;10438;51.454;6.718;2023-05-02T13:56:39;19.50;1.00
20560;DHT22;10438;51.454;6.718;2023-05-02T13:59:05;19.20;1.00
20560;DHT22;10438;51.454;6.718;2023-05-02T14:01:31;19.50;1.00
20560;DHT22;10438;51.454;6.718;2023-05-02T14:03:57;19.80;1.00
20560;DHT22;10438;51.454;6.718;2023-05-02T14:06:22;20.00;1.00
20560;DHT22;10438;51.454;6.718;2023-05-02T14:08:48;19.30;1.00
20560;DHT22;10438;51.454;6.718;2023-05-02T14:11:15;19.30;1.00
20560;DHT22;10438;51.454;6.718;2023-05-02T14:13:41;19.50;1.00
20560;DHT22;10438;51.454;6.718;2023-05-02T14:16:06;19.80;1.00
20560;DHT22;10438;51.454;6.718;2023-05-02T14:18:32;19.80;1.00
20560;DHT22;10438;51.454;6.718;2023-05-02T14:20:57;19.90;1.00
20560;DHT22;10438;51.454;6.718;2023-05-02T14:23:25;20.20;1.00
20560;DHT22;10438;51.454;6.718;2023-05-02T14:25:51;20.40;1.00
20560;DHT22;10438;51.454;6.718;2023-05-02T14:28:16;20.40;1.00
20560;DHT22;10438;51.454;6.718;2023-05-02T14:30:42;20.50;1.00
20560;DHT22;10438;51.454;6.718;2023-05-02T14:33:07;20.60;1.00
20560;DHT22;10438;51.454;6.718;2023-05-02T14:35:33;20.60;1.00
20560;DHT22;10438;51.454;6.718;2023-05-02T14:37:59;20.30;1.00
20560;DHT22;10438;51.454;6.718;2023-05-02T14:40:25;20.50;1.00
20560;DHT22;10438;51.454;6.718;2023-05-02T14:42:50;21.10;1.00
20560;DHT22;10438;51.454;6.718;2023-05-02T14:45:16;20.90;1.00
20560;DHT22;10438;51.454;6.718;2023-05-02T14:47:42;21.60;1.00
20560;DHT22;10438;51.454;6.718;2023-05-02T14:50:07;21.30;1.00
20560;DHT22;10438;51.454;6.718;2023-05-02T14:52:33;21.20;1.00
20560;DHT22;10438;51.454;6.718;2023-05-02T14:54:59;21.70;1.00
20560;DHT22;10438;51.454;6.718;2023-05-02T14:57:25;22.10;1.00
20560;DHT22;10438;51.454;6.718;2023-05-02T14:59:51;21.80;1.00
20560;DHT22;10438;51.454;6.718;2023-05-02T15:02:17;21.90;1.00
20560;DHT22;10438;51.454;6.718;2023-05-02T15:04:43;22.00;1.00
20560;DHT22;10438;51.454;6.718;2023-05-02T15:07:08;22.20;1.00
20560;DHT22;10438;51.454;6.718;2023-05-02T15:09:34;22.10;1.00
20560;DHT22;10438;51.454;6.718;2023-05-02T15:12:00;22.00;1.00
20560;DHT22;10438;51.454;6.718;2023-05-02T15:14:27;21.90;1.00
20560;DHT22;10438;51.454;6.718;2023-05-02T15:16:52;21.60;1.00
20560;DHT22;10438;51.454;6.718;2023-05-02T15:19:19;21.20;1.00
20560;DHT22;10438;51.454;6.718;2023-05-02T15:21:47;20.80;1.00
20560;DHT22;10438;51.454;6.718;2023-05-02T15:24:14;20.20;1.00
20560;DHT22;10438;51.454;6.718;2023-05-02T15:26:40;19.40;1.00
20560;DHT22;10438;51.454;6.718;2023-05-02T15:29:05;19.10;1.00
20560;DHT22;10438;51.454;6.718;2023-05-02T15:31:31;18.90;1.00
20560;DHT22;10438;51.454;6.718;2023-05-02T15:33:58;19.20;1.00
20560;DHT22;10438;51.454;6.718;2023-05-02T15:36:27;19.30;1.00
20560;DHT22;10438;51.454;6.718;2023-05-02T15:38:57;19.50;1.00
20560;DHT22;10438;51.454;6.718;2023-05-02T15:41:24;19.80;1.00
20560;DHT22;10438;51.454;6.718;2023-05-02T15:43:51;19.30;1.00
20560;DHT22;10438;51.454;6.718;2023-05-02T15:46:17;19.50;1.00
20560;DHT22;10438;51.454;6.718;2023-05-02T15:48:42;20.10;1.00
20560;DHT22;10438;51.454;6.718;2023-05-02T15:51:08;20.40;1.00
20560;DHT22;10438;51.454;6.718;2023-05-02T15:53:38;20.70;1.00
20560;DHT22;10438;51.454;6.718;2023-05-02T15:56:07;20.90;1.00
20560;DHT22;10438;51.454;6.718;2023-05-02T15:58:33;20.70;1.00
20560;DHT22;10438;51.454;6.718;2023-05-02T16:00:59;20.70;1.00
20560;DHT22;10438;51.454;6.718;2023-05-02T16:03:24;20.60;1.00
20560;DHT22;10438;51.454;6.718;2023-05-02T16:05:53;20.50;1.00
20560;DHT22;10438;51.454;6.718;2023-05-02T16:08:19;20.40;1.00
20560;DHT22;10438;51.454;6.718;2023-05-02T16:10:45;20.30;1.00
20560;DHT22;10438;51.454;6.718;2023-05-02T16:13:11;20.60;1.00
20560;DHT22;10438;51.454;6.718;2023-05-02T16:15:37;20.90;1.00
20560;DHT22;10438;51.454;6.718;2023-05-02T16:18:03;20.70;1.00
20560;DHT22;10438;51.454;6.718;2023-05-02T16:20:28;20.50;1.00
20560;DHT22;10438;51.454;6.718;2023-05-02T16:22:54;20.40;1.00
20560;DHT22;10438;51.454;6.718;2023-05-02T16:25:20;20.60;1.00
20560;DHT22;10438;51.454;6.718;2023-05-02T16:27:45;20.60;1.00
20560;DHT22;10438;51.454;6.718;2023-05-02T16:30:12;20.80;1.00